Time;durP1;ratioP1;P1;durP2;ratioP2;P2;SDS_P1;SDS_P2;PMS_P1;PMS_P2;Temp;Humidity;BMP_temperature;BMP_pressure;BME280_temperature;BME280_humidity;BME280_pressure;Samples;Min_cycle;Max_cycle;Signal;HPM_P1;HPM_P2
2022/11/17 00:00:24;;;;;;;;;;;10.90;99.90;;;;;;8404512;28;19939;-79
2022/11/17 00:04:27;;;;;;;;;;;10.90;99.90;;;;;;8420507;28;19932;-78
2022/11/17 00:08:29;;;;;;;;;;;10.80;99.90;;;;;;8418514;28;19924;-78
2022/11/17 00:16:51;;;;;;;;;;;10.80;99.90;;;;;;8410105;28;20003;-78
2022/11/17 00:25:13;;;;;;;;;;;10.80;99.90;;;;;;8417241;28;19934;-78
2022/11/17 00:29:15;;;;;;;;;;;10.80;99.90;;;;;;8412445;28;19932;-78
2022/11/17 00:38:14;;;;;;;;;;;10.80;99.90;;;;;;8405095;28;20299;-79
2022/11/17 00:42:00;;;;;;;;;;;10.80;99.90;;;;;;8403265;28;19934;-78
2022/11/17 00:46:02;;;;;;;;;;;10.80;99.90;;;;;;8411293;28;20290;-77
2022/11/17 00:50:03;;;;;;;;;;;10.80;99.90;;;;;;8388578;28;19924;-78
2022/11/17 00:54:06;;;;;;;;;;;10.80;99.90;;;;;;8409161;28;20398;-78
2022/11/17 00:58:07;;;;;;;;;;;10.80;99.90;;;;;;8406568;28;19934;-78
2022/11/17 01:02:09;;;;;;;;;;;10.80;99.90;;;;;;8396890;28;19924;-77
2022/11/17 01:06:12;;;;;;;;;;;10.80;99.90;;;;;;8415005;28;19931;-78
2022/11/17 01:10:14;;;;;;;;;;;10.80;99.90;;;;;;8414285;28;19946;-78
2022/11/17 01:14:17;;;;;;;;;;;10.80;99.90;;;;;;8413112;28;20406;-77
2022/11/17 01:18:18;;;;;;;;;;;10.80;99.90;;;;;;8407514;28;19935;-77
2022/11/17 01:22:20;;;;;;;;;;;10.80;99.90;;;;;;8421652;28;19930;-76
2022/11/17 01:26:24;;;;;;;;;;;10.80;99.90;;;;;;8417756;28;20412;-76
2022/11/17 01:30:26;;;;;;;;;;;10.80;99.90;;;;;;8411316;28;20372;-76
2022/11/17 01:34:28;;;;;;;;;;;10.80;99.90;;;;;;8401515;28;19924;-77
2022/11/17 01:38:30;;;;;;;;;;;10.80;99.90;;;;;;8419078;28;19959;-76
2022/11/17 01:42:31;;;;;;;;;;;10.80;99.90;;;;;;8410313;28;19932;-76
2022/11/17 01:46:35;;;;;;;;;;;10.80;99.90;;;;;;8393491;28;19932;-77
2022/11/17 01:50:39;;;;;;;;;;;10.80;99.90;;;;;;8407068;28;20401;-76
2022/11/17 01:54:41;;;;;;;;;;;10.80;99.90;;;;;;8404020;28;20234;-77
2022/11/17 01:58:47;;;;;;;;;;;10.80;99.90;;;;;;8399474;28;19942;-76
2022/11/17 02:02:50;;;;;;;;;;;10.80;99.90;;;;;;8420673;28;19924;-77
2022/11/17 02:06:53;;;;;;;;;;;10.90;99.90;;;;;;8413218;28;19928;-77
2022/11/17 02:10:55;;;;;;;;;;;10.90;99.90;;;;;;8404915;28;20279;-77
2022/11/17 02:14:57;;;;;;;;;;;10.90;99.90;;;;;;8405437;28;19927;-77
2022/11/17 02:18:59;;;;;;;;;;;11.00;99.90;;;;;;8413573;28;19986;-76
2022/11/17 02:23:00;;;;;;;;;;;11.00;99.90;;;;;;8398820;28;19942;-76
2022/11/17 02:27:21;;;;;;;;;;;10.90;99.90;;;;;;8411975;28;20345;-77
2022/11/17 02:31:22;;;;;;;;;;;11.00;99.90;;;;;;8419493;28;20426;-77
2022/11/17 02:35:48;;;;;;;;;;;11.00;99.90;;;;;;8415468;28;20406;-77
2022/11/17 02:39:52;;;;;;;;;;;11.00;99.90;;;;;;8409435;28;19932;-77
2022/11/17 02:44:02;;;;;;;;;;;11.00;99.90;;;;;;8418474;28;19967;-76
2022/11/17 02:48:10;;;;;;;;;;;11.00;99.90;;;;;;8429671;28;20012;-77
2022/11/17 02:52:14;;;;;;;;;;;11.00;99.90;;;;;;8420430;28;19927;-77
2022/11/17 02:56:15;;;;;;;;;;;11.00;99.90;;;;;;8404153;28;20389;-77
2022/11/17 03:00:17;;;;;;;;;;;11.10;99.90;;;;;;8414361;28;19974;-77
2022/11/17 03:04:34;;;;;;;;;;;11.10;99.90;;;;;;8415366;28;19931;-77
2022/11/17 03:08:39;;;;;;;;;;;11.10;99.90;;;;;;8415297;28;20435;-76
2022/11/17 03:12:59;;;;;;;;;;;11.10;99.90;;;;;;8414706;28;19930;-78
2022/11/17 03:17:05;;;;;;;;;;;11.10;99.90;;;;;;8410532;28;19931;-77
2022/11/17 03:21:18;;;;;;;;;;;11.10;99.90;;;;;;8417166;28;19930;-77
2022/11/17 03:25:21;;;;;;;;;;;11.20;99.90;;;;;;8400120;28;20304;-77
2022/11/17 03:29:26;;;;;;;;;;;11.10;99.90;;;;;;8415648;28;19928;-77
2022/11/17 03:33:27;;;;;;;;;;;11.20;99.90;;;;;;8414599;28;19924;-77
2022/11/17 03:37:33;;;;;;;;;;;11.20;99.90;;;;;;8415042;28;19971;-77
2022/11/17 03:41:38;;;;;;;;;;;11.20;99.90;;;;;;8410677;28;20391;-77
2022/11/17 03:45:42;;;;;;;;;;;11.20;99.90;;;;;;8419877;28;19924;-76
2022/11/17 03:49:52;;;;;;;;;;;11.30;99.90;;;;;;8434957;28;20375;-76
2022/11/17 03:53:54;;;;;;;;;;;11.30;99.90;;;;;;8427051;28;19924;-77
2022/11/17 03:57:58;;;;;;;;;;;11.30;99.90;;;;;;8416229;28;20410;-77
2022/11/17 04:01:59;;;;;;;;;;;11.30;99.90;;;;;;8395585;28;19999;-76
2022/11/17 04:06:01;;;;;;;;;;;11.30;99.90;;;;;;8409238;28;19935;-77
2022/11/17 04:10:03;;;;;;;;;;;11.30;99.90;;;;;;8420484;28;19928;-77
2022/11/17 04:18:25;;;;;;;;;;;11.40;99.90;;;;;;8404153;28;20500;-77
2022/11/17 04:22:27;;;;;;;;;;;11.30;99.90;;;;;;8398385;28;20347;-77
2022/11/17 04:30:49;;;;;;;;;;;11.30;99.90;;;;;;8409430;28;20016;-77
2022/11/17 04:34:51;;;;;;;;;;;11.30;99.90;;;;;;8415503;28;19924;-77
2022/11/17 04:38:53;;;;;;;;;;;11.30;99.90;;;;;;8409557;28;19971;-78
2022/11/17 04:42:55;;;;;;;;;;;11.20;99.90;;;;;;8416849;28;19928;-79
2022/11/17 04:46:57;;;;;;;;;;;11.20;99.90;;;;;;8399630;28;19924;-78
2022/11/17 04:50:58;;;;;;;;;;;11.20;99.90;;;;;;8390841;28;20327;-78
2022/11/17 04:55:00;;;;;;;;;;;11.20;99.90;;;;;;8415450;28;19932;-79
2022/11/17 04:59:01;;;;;;;;;;;11.20;99.90;;;;;;8397719;28;20272;-77
2022/11/17 05:03:03;;;;;;;;;;;11.20;99.90;;;;;;8425026;28;20027;-78
2022/11/17 05:07:05;;;;;;;;;;;11.20;99.90;;;;;;8432485;28;20040;-78
2022/11/17 05:19:48;;;;;;;;;;;11.20;99.90;;;;;;8430073;28;20012;-77
2022/11/17 05:23:55;;;;;;;;;;;11.20;99.90;;;;;;8428271;28;19924;-78
2022/11/17 05:27:57;;;;;;;;;;;11.30;99.90;;;;;;8420195;28;19935;-78
2022/11/17 05:31:58;;;;;;;;;;;11.20;99.90;;;;;;8417849;28;19923;-78
2022/11/17 05:36:00;;;;;;;;;;;11.20;99.90;;;;;;8423235;28;19987;-78
2022/11/17 05:40:01;;;;;;;;;;;11.20;99.90;;;;;;8418427;28;19924;-78
2022/11/17 05:44:03;;;;;;;;;;;11.10;99.90;;;;;;8406214;28;19928;-78
2022/11/17 05:48:05;;;;;;;;;;;11.20;99.90;;;;;;8400284;28;20007;-78
2022/11/17 05:52:07;;;;;;;;;;;11.10;99.90;;;;;;8428549;28;19947;-78
2022/11/17 05:56:11;;;;;;;;;;;11.10;99.90;;;;;;8419191;28;20446;-78
2022/11/17 06:00:13;;;;;;;;;;;11.10;99.90;;;;;;8419272;28;19983;-78
2022/11/17 06:04:17;;;;;;;;;;;11.10;99.90;;;;;;8423260;28;19963;-78
2022/11/17 06:08:19;;;;;;;;;;;11.10;99.90;;;;;;8421637;28;19932;-78
2022/11/17 06:12:20;;;;;;;;;;;11.10;99.90;;;;;;8420117;28;19928;-78
2022/11/17 06:16:23;;;;;;;;;;;11.10;99.90;;;;;;8410817;28;19939;-79
2022/11/17 06:20:27;;;;;;;;;;;11.10;99.90;;;;;;8421572;28;19926;-79
2022/11/17 06:24:28;;;;;;;;;;;11.10;99.90;;;;;;8422673;28;20600;-78
2022/11/17 06:28:31;;;;;;;;;;;11.00;99.90;;;;;;8413639;28;19931;-79
2022/11/17 06:32:35;;;;;;;;;;;11.00;99.90;;;;;;8429173;28;20276;-79
2022/11/17 06:36:36;;;;;;;;;;;11.00;99.90;;;;;;8431259;28;19947;-79
2022/11/17 06:40:38;;;;;;;;;;;11.00;99.90;;;;;;8424061;28;20434;-79
2022/11/17 06:44:40;;;;;;;;;;;11.00;99.90;;;;;;8408157;28;19928;-79
2022/11/17 06:48:41;;;;;;;;;;;11.10;99.90;;;;;;8427371;28;20356;-78
2022/11/17 06:52:43;;;;;;;;;;;11.00;99.90;;;;;;8401797;28;19932;-80
2022/11/17 06:56:44;;;;;;;;;;;11.00;99.90;;;;;;8394501;28;19977;-79
2022/11/17 07:00:46;;;;;;;;;;;11.00;99.90;;;;;;8416532;28;20016;-80
2022/11/17 07:04:48;;;;;;;;;;;11.00;99.90;;;;;;8422283;28;19924;-79
2022/11/17 07:08:49;;;;;;;;;;;11.00;99.90;;;;;;8411173;28;19928;-79
2022/11/17 07:12:51;;;;;;;;;;;11.00;99.90;;;;;;8392600;28;19928;-79
2022/11/17 07:16:53;;;;;;;;;;;11.00;99.90;;;;;;8397627;28;19971;-78
2022/11/17 07:20:54;;;;;;;;;;;11.00;99.90;;;;;;8420007;28;19931;-79
2022/11/17 07:24:56;;;;;;;;;;;11.00;99.90;;;;;;8419412;28;19924;-80
2022/11/17 07:28:57;;;;;;;;;;;10.90;99.90;;;;;;8420734;28;19924;-79
2022/11/17 07:32:59;;;;;;;;;;;10.90;99.90;;;;;;8420712;28;19930;-80
2022/11/17 07:37:01;;;;;;;;;;;10.90;99.90;;;;;;8428802;28;19924;-80
2022/11/17 07:41:03;;;;;;;;;;;10.90;99.90;;;;;;8408004;28;19931;-80
2022/11/17 07:45:06;;;;;;;;;;;10.80;99.90;;;;;;8415783;28;20386;-79
2022/11/17 07:49:08;;;;;;;;;;;10.80;99.90;;;;;;8425050;28;20383;-79
2022/11/17 07:53:10;;;;;;;;;;;10.70;99.90;;;;;;8412504;28;20254;-80
2022/11/17 07:57:12;;;;;;;;;;;10.70;99.90;;;;;;8418622;28;20023;-79
2022/11/17 08:01:14;;;;;;;;;;;10.60;99.90;;;;;;8398500;28;20011;-79
2022/11/17 08:05:16;;;;;;;;;;;10.60;99.90;;;;;;8411493;28;19928;-80
2022/11/17 08:09:18;;;;;;;;;;;10.60;99.90;;;;;;8425212;28;19924;-80
2022/11/17 08:13:19;;;;;;;;;;;10.60;99.90;;;;;;8417130;28;19929;-79
2022/11/17 08:17:21;;;;;;;;;;;10.60;99.90;;;;;;8407949;28;19931;-79
2022/11/17 08:21:23;;;;;;;;;;;10.60;99.90;;;;;;8422634;28;19978;-79
2022/11/17 08:25:25;;;;;;;;;;;10.60;99.90;;;;;;8407750;28;19924;-80
2022/11/17 08:29:27;;;;;;;;;;;10.60;99.90;;;;;;8416805;28;19998;-79
2022/11/17 08:33:29;;;;;;;;;;;10.60;99.90;;;;;;8419054;28;19950;-79
2022/11/17 08:37:31;;;;;;;;;;;10.60;99.90;;;;;;8419242;28;19959;-78
2022/11/17 08:41:32;;;;;;;;;;;10.50;99.90;;;;;;8421490;28;20386;-79
2022/11/17 08:45:34;;;;;;;;;;;10.50;99.90;;;;;;8426112;28;19932;-79
2022/11/17 08:49:35;;;;;;;;;;;10.50;99.90;;;;;;8409272;28;19925;-79
2022/11/17 08:53:37;;;;;;;;;;;10.50;99.90;;;;;;8388882;28;19924;-79
2022/11/17 08:57:39;;;;;;;;;;;10.50;99.90;;;;;;8403374;28;19924;-79
2022/11/17 09:01:40;;;;;;;;;;;10.50;99.90;;;;;;8394874;28;19929;-79
2022/11/17 09:05:43;;;;;;;;;;;10.50;99.90;;;;;;8415910;28;19928;-80
2022/11/17 09:09:45;;;;;;;;;;;10.50;99.90;;;;;;8403411;28;20335;-80
2022/11/17 09:13:47;;;;;;;;;;;10.50;99.90;;;;;;8421620;28;20335;-78
2022/11/17 09:17:49;;;;;;;;;;;10.50;99.90;;;;;;8405141;28;19924;-79
2022/11/17 09:21:51;;;;;;;;;;;10.50;99.90;;;;;;8434591;28;19931;-79
2022/11/17 09:25:52;;;;;;;;;;;10.50;99.90;;;;;;8409687;28;19925;-79
2022/11/17 09:29:54;;;;;;;;;;;10.50;99.90;;;;;;8409349;28;19928;-79
2022/11/17 09:33:56;;;;;;;;;;;10.50;99.90;;;;;;8414284;28;19935;-79
2022/11/17 09:38:01;;;;;;;;;;;10.50;99.90;;;;;;8416632;28;20372;-79
2022/11/17 09:42:02;;;;;;;;;;;10.50;99.90;;;;;;8410099;28;19931;-79
2022/11/17 09:46:11;;;;;;;;;;;10.50;99.90;;;;;;8401995;28;20659;-80
2022/11/17 09:50:13;;;;;;;;;;;10.50;99.90;;;;;;8401905;28;19924;-79
2022/11/17 09:54:33;;;;;;;;;;;10.40;99.90;;;;;;8407900;28;20013;-79
2022/11/17 09:58:38;;;;;;;;;;;10.40;99.90;;;;;;8406777;28;20007;-79
2022/11/17 10:02:41;;;;;;;;;;;10.40;99.90;;;;;;8406006;28;19930;-79
2022/11/17 10:06:44;;;;;;;;;;;10.40;99.90;;;;;;8411547;28;19928;-80
2022/11/17 10:10:47;;;;;;;;;;;10.40;99.90;;;;;;8424287;28;19967;-80
2022/11/17 10:14:49;;;;;;;;;;;10.40;99.90;;;;;;8419555;28;19930;-80
2022/11/17 10:18:51;;;;;;;;;;;10.40;99.90;;;;;;8395548;28;20291;-79
2022/11/17 10:22:53;;;;;;;;;;;10.40;99.90;;;;;;8413902;28;20276;-80
2022/11/17 10:26:54;;;;;;;;;;;10.40;99.90;;;;;;8419354;28;19929;-79
2022/11/17 10:30:59;;;;;;;;;;;10.30;99.90;;;;;;8413559;28;19924;-79
2022/11/17 10:35:16;;;;;;;;;;;10.30;99.90;;;;;;8417558;28;19924;-80
2022/11/17 10:39:32;;;;;;;;;;;10.30;99.90;;;;;;8417429;28;20104;-79
2022/11/17 10:43:34;;;;;;;;;;;10.30;99.90;;;;;;8415909;28;21082;-80
2022/11/17 10:47:38;;;;;;;;;;;10.30;99.90;;;;;;8413636;28;19932;-79
2022/11/17 10:51:39;;;;;;;;;;;10.30;99.90;;;;;;8422530;28;19924;-78
2022/11/17 10:55:42;;;;;;;;;;;10.30;99.90;;;;;;8398968;28;19960;-78
2022/11/17 10:59:46;;;;;;;;;;;10.30;99.90;;;;;;8388587;28;19935;-79
2022/11/17 11:03:52;;;;;;;;;;;10.30;99.90;;;;;;8390520;28;20084;-78
2022/11/17 11:08:07;;;;;;;;;;;10.30;99.90;;;;;;8379901;28;19943;-77
2022/11/17 11:12:10;;;;;;;;;;;10.30;99.90;;;;;;8393924;28;19928;-79
2022/11/17 11:16:12;;;;;;;;;;;10.30;99.90;;;;;;8394936;28;19929;-78
2022/11/17 11:20:15;;;;;;;;;;;10.30;99.90;;;;;;8374342;28;19940;-79
2022/11/17 11:24:35;;;;;;;;;;;10.30;99.90;;;;;;8394973;28;19967;-79
2022/11/17 11:28:52;;;;;;;;;;;10.30;99.90;;;;;;8382352;28;20764;-79
2022/11/17 11:33:24;;;;;;;;;;;10.20;99.90;;;;;;8391249;28;19938;-78
2022/11/17 11:37:31;;;;;;;;;;;10.30;99.90;;;;;;8373087;28;20295;-79
2022/11/17 11:41:45;;;;;;;;;;;10.30;99.90;;;;;;8385271;28;20023;-78
2022/11/17 11:45:56;;;;;;;;;;;10.20;99.90;;;;;;8389004;28;20022;-79
2022/11/17 11:50:10;;;;;;;;;;;10.20;99.90;;;;;;8389494;28;22087;-79
2022/11/17 11:54:15;;;;;;;;;;;10.20;99.90;;;;;;8388536;28;19931;-78
2022/11/17 11:58:20;;;;;;;;;;;10.20;99.90;;;;;;8385277;28;19935;-79
2022/11/17 12:02:29;;;;;;;;;;;10.20;99.90;;;;;;8395393;28;19924;-79
2022/11/17 12:06:40;;;;;;;;;;;10.20;99.90;;;;;;8410503;28;19935;-78
2022/11/17 12:11:58;;;;;;;;;;;10.20;99.90;;;;;;8392479;28;19935;-79
2022/11/17 12:15:22;;;;;;;;;;;10.20;99.90;;;;;;8396734;28;20363;-79
2022/11/17 12:19:43;;;;;;;;;;;10.20;99.90;;;;;;8392916;28;20023;-79
2022/11/17 12:23:51;;;;;;;;;;;10.20;99.90;;;;;;8385810;28;19932;-80
2022/11/17 12:27:53;;;;;;;;;;;10.20;99.90;;;;;;8380336;28;20655;-78
2022/11/17 12:31:59;;;;;;;;;;;10.20;99.90;;;;;;8383152;28;19928;-78
2022/11/17 12:36:15;;;;;;;;;;;10.20;99.90;;;;;;8386021;28;20019;-79
2022/11/17 12:40:35;;;;;;;;;;;10.20;99.90;;;;;;8382775;28;19928;-79
2022/11/17 12:44:37;;;;;;;;;;;10.20;99.90;;;;;;8394227;28;19939;-80
2022/11/17 12:48:45;;;;;;;;;;;10.20;99.90;;;;;;8387038;28;20462;-79
2022/11/17 12:53:05;;;;;;;;;;;10.20;99.90;;;;;;8404475;28;19925;-79
2022/11/17 12:57:09;;;;;;;;;;;10.20;99.90;;;;;;8390607;28;19924;-79
2022/11/17 13:01:14;;;;;;;;;;;10.20;99.90;;;;;;8393370;28;19924;-79
2022/11/17 13:05:20;;;;;;;;;;;10.20;99.90;;;;;;8392989;28;20365;-79
2022/11/17 13:09:24;;;;;;;;;;;10.20;99.90;;;;;;8391373;28;20439;-79
2022/11/17 13:13:26;;;;;;;;;;;10.20;99.90;;;;;;8393062;28;19928;-79
2022/11/17 13:17:32;;;;;;;;;;;10.20;99.90;;;;;;8393924;28;19963;-78
2022/11/17 13:21:34;;;;;;;;;;;10.20;99.90;;;;;;8384747;28;20334;-79
2022/11/17 13:25:35;;;;;;;;;;;10.20;99.90;;;;;;8376813;28;19987;-79
2022/11/17 13:29:37;;;;;;;;;;;10.20;99.90;;;;;;8386163;28;20371;-79
2022/11/17 13:33:39;;;;;;;;;;;10.20;99.90;;;;;;8390992;28;19935;-79
2022/11/17 13:37:41;;;;;;;;;;;10.20;99.90;;;;;;8376503;28;19935;-80
2022/11/17 13:41:42;;;;;;;;;;;10.10;99.90;;;;;;8359247;28;20343;-80
2022/11/17 13:45:46;;;;;;;;;;;10.20;99.90;;;;;;8361547;28;19935;-80
2022/11/17 13:49:47;;;;;;;;;;;10.10;99.90;;;;;;8361813;28;19925;-80
2022/11/17 13:53:51;;;;;;;;;;;10.20;99.90;;;;;;8363669;28;20384;-79
2022/11/17 13:57:58;;;;;;;;;;;10.20;99.90;;;;;;8359910;28;20079;-79
2022/11/17 14:02:14;;;;;;;;;;;10.20;99.90;;;;;;8355644;28;19925;-80
2022/11/17 14:06:16;;;;;;;;;;;10.30;99.90;;;;;;8357585;28;20010;-79
2022/11/17 14:10:26;;;;;;;;;;;10.30;99.90;;;;;;8352589;28;19933;-79
2022/11/17 14:14:31;;;;;;;;;;;10.30;99.90;;;;;;8363068;28;19935;-79
2022/11/17 14:18:37;;;;;;;;;;;10.30;99.90;;;;;;8369097;28;20011;-79
2022/11/17 14:22:38;;;;;;;;;;;10.30;99.90;;;;;;8365379;28;19928;-79
2022/11/17 14:26:41;;;;;;;;;;;10.30;99.90;;;;;;8369651;28;20383;-79
2022/11/17 14:30:46;;;;;;;;;;;10.40;99.90;;;;;;8368675;28;20400;-79
2022/11/17 14:34:48;;;;;;;;;;;10.40;99.90;;;;;;8366817;28;20360;-80
2022/11/17 14:38:50;;;;;;;;;;;10.40;99.90;;;;;;8374094;28;20360;-79
2022/11/17 14:42:52;;;;;;;;;;;10.40;99.90;;;;;;8399812;28;20003;-79
2022/11/17 14:46:53;;;;;;;;;;;10.50;99.90;;;;;;8378748;28;20011;-80
2022/11/17 14:50:56;;;;;;;;;;;10.50;99.90;;;;;;8387742;28;19952;-79
2022/11/17 14:54:59;;;;;;;;;;;10.50;99.90;;;;;;8403739;28;20413;-79
2022/11/17 14:59:01;;;;;;;;;;;10.50;99.90;;;;;;8400426;28;20360;-79
2022/11/17 15:03:03;;;;;;;;;;;10.50;99.90;;;;;;8398751;28;19924;-78
2022/11/17 15:07:05;;;;;;;;;;;10.60;99.90;;;;;;8402156;28;19972;-79
2022/11/17 15:11:11;;;;;;;;;;;10.60;99.90;;;;;;8401824;28;20053;-79
2022/11/17 15:15:13;;;;;;;;;;;10.60;99.90;;;;;;8404369;28;19924;-79
2022/11/17 15:19:15;;;;;;;;;;;10.60;99.90;;;;;;8375219;28;19932;-80
2022/11/17 15:23:16;;;;;;;;;;;10.60;99.90;;;;;;8382647;28;20409;-79
2022/11/17 15:27:18;;;;;;;;;;;10.70;99.90;;;;;;8378853;28;19925;-79
2022/11/17 15:31:20;;;;;;;;;;;10.70;99.90;;;;;;8385900;28;19935;-79
2022/11/17 15:35:21;;;;;;;;;;;10.70;99.90;;;;;;8377989;28;19950;-79
2022/11/17 15:39:23;;;;;;;;;;;10.70;99.90;;;;;;8397599;28;19933;-80
2022/11/17 15:43:26;;;;;;;;;;;10.70;99.90;;;;;;8397434;28;20015;-80
2022/11/17 15:47:28;;;;;;;;;;;10.70;99.90;;;;;;8402955;28;19931;-81
2022/11/17 15:51:29;;;;;;;;;;;10.70;99.90;;;;;;8398673;28;19932;-79
2022/11/17 15:55:32;;;;;;;;;;;10.70;99.90;;;;;;8387648;28;19935;-80
2022/11/17 15:59:34;;;;;;;;;;;10.70;99.90;;;;;;8386448;28;20308;-79
2022/11/17 16:03:36;;;;;;;;;;;10.70;99.90;;;;;;8378130;28;19960;-79
2022/11/17 16:07:38;;;;;;;;;;;10.70;99.90;;;;;;8397431;28;19998;-79
2022/11/17 16:11:40;;;;;;;;;;;10.60;99.90;;;;;;8378475;28;20591;-79
2022/11/17 16:15:42;;;;;;;;;;;10.60;99.90;;;;;;8392975;28;19969;-79
2022/11/17 16:19:43;;;;;;;;;;;10.60;99.90;;;;;;8396801;28;20011;-79
2022/11/17 16:23:46;;;;;;;;;;;10.70;99.90;;;;;;8407761;28;19958;-79
2022/11/17 16:27:48;;;;;;;;;;;10.70;99.90;;;;;;8394422;28;19931;-79
2022/11/17 16:31:49;;;;;;;;;;;10.70;99.90;;;;;;8396438;28;19931;-79
2022/11/17 16:35:51;;;;;;;;;;;10.70;99.90;;;;;;8405394;28;19928;-79
2022/11/17 16:39:53;;;;;;;;;;;10.70;99.90;;;;;;8392520;28;19983;-79
2022/11/17 16:43:55;;;;;;;;;;;10.60;99.90;;;;;;8395652;28;19978;-79
2022/11/17 16:47:58;;;;;;;;;;;10.60;99.90;;;;;;8394647;28;20031;-79
2022/11/17 16:51:59;;;;;;;;;;;10.60;99.90;;;;;;8393224;28;19967;-80
2022/11/17 16:56:02;;;;;;;;;;;10.60;99.90;;;;;;8393849;28;19928;-79
2022/11/17 17:00:04;;;;;;;;;;;10.60;99.90;;;;;;8391161;28;19934;-79
2022/11/17 17:04:07;;;;;;;;;;;10.60;99.90;;;;;;8402659;28;19932;-79
2022/11/17 17:08:08;;;;;;;;;;;10.60;99.90;;;;;;8392654;28;20014;-79
2022/11/17 17:12:10;;;;;;;;;;;10.60;99.90;;;;;;8391738;28;19928;-79
2022/11/17 17:16:13;;;;;;;;;;;10.60;99.90;;;;;;8397086;28;20085;-79
2022/11/17 17:20:14;;;;;;;;;;;10.60;99.90;;;;;;8396141;28;19954;-79
2022/11/17 17:24:16;;;;;;;;;;;10.60;99.90;;;;;;8394229;28;19935;-79
2022/11/17 17:28:18;;;;;;;;;;;10.60;99.90;;;;;;8389906;28;19924;-79
2022/11/17 17:32:19;;;;;;;;;;;10.60;99.90;;;;;;8394219;28;19925;-80
2022/11/17 17:36:23;;;;;;;;;;;10.60;99.90;;;;;;8391605;28;19932;-80
2022/11/17 17:40:25;;;;;;;;;;;10.60;99.90;;;;;;8396115;28;20334;-79
2022/11/17 17:44:26;;;;;;;;;;;10.60;99.90;;;;;;8379353;28;20020;-80
2022/11/17 17:48:32;;;;;;;;;;;10.70;99.90;;;;;;8397874;28;19935;-80
2022/11/17 17:52:33;;;;;;;;;;;10.70;99.90;;;;;;8389120;28;20309;-79
2022/11/17 17:56:35;;;;;;;;;;;10.70;99.90;;;;;;8393650;28;19928;-79
2022/11/17 18:00:36;;;;;;;;;;;10.70;99.90;;;;;;8398335;28;19940;-80
2022/11/17 18:04:38;;;;;;;;;;;10.70;99.90;;;;;;8395016;28;20371;-80
2022/11/17 18:08:40;;;;;;;;;;;10.70;99.90;;;;;;8393977;28;20015;-79
2022/11/17 18:12:41;;;;;;;;;;;10.70;99.90;;;;;;8394398;28;19932;-80
2022/11/17 18:16:43;;;;;;;;;;;10.70;99.90;;;;;;8386176;28;20402;-79
2022/11/17 18:20:45;;;;;;;;;;;10.60;99.90;;;;;;8386262;28;19935;-79
2022/11/17 18:24:46;;;;;;;;;;;10.70;99.90;;;;;;8395318;28;19934;-79
2022/11/17 18:28:52;;;;;;;;;;;10.60;99.90;;;;;;8402527;28;19963;-79
2022/11/17 18:32:54;;;;;;;;;;;10.60;99.90;;;;;;8386281;28;19924;-78
2022/11/17 18:36:59;;;;;;;;;;;10.60;99.90;;;;;;8390479;28;19925;-79
2022/11/17 18:41:02;;;;;;;;;;;10.60;99.90;;;;;;8396904;28;19924;-79
2022/11/17 18:45:03;;;;;;;;;;;10.50;99.90;;;;;;8400197;28;20368;-78
2022/11/17 18:49:05;;;;;;;;;;;10.60;99.90;;;;;;8391428;28;19978;-80
2022/11/17 18:53:07;;;;;;;;;;;10.50;99.90;;;;;;8403363;28;19931;-80
2022/11/17 18:57:09;;;;;;;;;;;10.50;99.90;;;;;;8397459;28;20034;-80
2022/11/17 19:01:13;;;;;;;;;;;10.50;99.90;;;;;;8402532;28;19928;-79
2022/11/17 19:05:15;;;;;;;;;;;10.40;99.90;;;;;;8398342;28;19977;-79
2022/11/17 19:09:16;;;;;;;;;;;10.40;99.90;;;;;;8405058;28;19924;-79
2022/11/17 19:13:20;;;;;;;;;;;10.40;99.90;;;;;;8391081;28;20706;-80
2022/11/17 19:17:21;;;;;;;;;;;10.40;99.90;;;;;;8402168;28;20078;-80
2022/11/17 19:21:27;;;;;;;;;;;10.40;99.90;;;;;;8403970;28;19951;-79
2022/11/17 19:25:29;;;;;;;;;;;10.40;99.90;;;;;;8391695;28;19938;-80
2022/11/17 19:29:31;;;;;;;;;;;10.30;99.90;;;;;;8408587;28;19928;-79
2022/11/17 19:33:33;;;;;;;;;;;10.30;99.90;;;;;;8399524;28;19928;-79
2022/11/17 19:37:35;;;;;;;;;;;10.30;99.90;;;;;;8405700;28;19924;-79
2022/11/17 19:41:38;;;;;;;;;;;10.30;99.90;;;;;;8403128;28;20411;-79
2022/11/17 19:45:40;;;;;;;;;;;10.30;99.90;;;;;;8402190;28;19925;-79
2022/11/17 19:49:41;;;;;;;;;;;10.30;99.90;;;;;;8400212;28;19924;-79
2022/11/17 19:53:43;;;;;;;;;;;10.30;99.90;;;;;;8397155;28;19978;-79
2022/11/17 19:57:45;;;;;;;;;;;10.20;99.90;;;;;;8383684;28;19928;-79
2022/11/17 20:01:46;;;;;;;;;;;10.20;99.90;;;;;;8380640;28;19935;-79
2022/11/17 20:05:48;;;;;;;;;;;10.20;99.90;;;;;;8395741;28;19924;-79
2022/11/17 20:09:50;;;;;;;;;;;10.20;99.90;;;;;;8400462;28;19963;-79
2022/11/17 20:13:52;;;;;;;;;;;10.20;99.90;;;;;;8393571;28;19931;-79
2022/11/17 20:17:54;;;;;;;;;;;10.20;99.90;;;;;;8397661;28;19925;-79
2022/11/17 20:21:55;;;;;;;;;;;10.20;99.90;;;;;;8385346;28;19924;-79
2022/11/17 20:25:57;;;;;;;;;;;10.10;99.90;;;;;;8384861;28;20204;-80
2022/11/17 20:29:58;;;;;;;;;;;10.10;99.90;;;;;;8392933;28;20305;-79
2022/11/17 20:34:01;;;;;;;;;;;10.00;99.90;;;;;;8393760;28;19931;-79
2022/11/17 20:38:05;;;;;;;;;;;10.00;99.90;;;;;;8393350;28;21596;-79
2022/11/17 20:42:08;;;;;;;;;;;10.00;99.90;;;;;;8386563;28;19978;-79
2022/11/17 20:46:09;;;;;;;;;;;9.90;99.90;;;;;;8389727;28;19963;-79
2022/11/17 20:50:11;;;;;;;;;;;9.90;99.90;;;;;;8401802;28;20310;-79
2022/11/17 20:54:13;;;;;;;;;;;9.90;99.90;;;;;;8396068;28;20404;-79
2022/11/17 20:58:14;;;;;;;;;;;9.90;99.90;;;;;;8380811;28;19928;-79
2022/11/17 21:02:16;;;;;;;;;;;9.80;99.90;;;;;;8385557;28;19938;-79
2022/11/17 21:06:18;;;;;;;;;;;9.80;99.90;;;;;;8391009;28;20365;-78
2022/11/17 21:10:20;;;;;;;;;;;9.80;99.90;;;;;;8388748;28;19935;-79
2022/11/17 21:14:24;;;;;;;;;;;9.70;99.90;;;;;;8383330;28;19924;-79
2022/11/17 21:18:26;;;;;;;;;;;9.70;99.90;;;;;;8399873;28;19963;-79
2022/11/17 21:22:28;;;;;;;;;;;9.70;99.90;;;;;;8406092;28;19982;-79
2022/11/17 21:26:29;;;;;;;;;;;9.70;99.90;;;;;;8404900;28;19935;-79
2022/11/17 21:30:32;;;;;;;;;;;9.60;99.90;;;;;;8403352;28;19924;-78
2022/11/17 21:34:34;;;;;;;;;;;9.60;99.90;;;;;;8402059;28;19967;-79
2022/11/17 21:38:36;;;;;;;;;;;9.60;99.90;;;;;;8401037;28;19925;-79
2022/11/17 21:42:37;;;;;;;;;;;9.60;99.90;;;;;;8402629;28;19960;-78
2022/11/17 21:46:39;;;;;;;;;;;9.50;99.90;;;;;;8406026;28;19924;-79
2022/11/17 21:50:43;;;;;;;;;;;9.50;99.90;;;;;;8400336;28;19939;-79
2022/11/17 21:54:45;;;;;;;;;;;9.50;99.90;;;;;;8410672;28;20644;-78
2022/11/17 21:58:46;;;;;;;;;;;9.50;99.90;;;;;;8386527;28;19932;-78
2022/11/17 22:02:48;;;;;;;;;;;9.40;99.90;;;;;;8409556;28;19928;-79
2022/11/17 22:06:50;;;;;;;;;;;9.40;99.90;;;;;;8423909;28;19931;-79
2022/11/17 22:10:51;;;;;;;;;;;9.40;99.90;;;;;;8420617;28;19970;-79
2022/11/17 22:14:53;;;;;;;;;;;9.30;99.90;;;;;;8418350;28;20298;-79
2022/11/17 22:18:55;;;;;;;;;;;9.30;99.90;;;;;;8409174;28;19959;-79
2022/11/17 22:22:56;;;;;;;;;;;9.20;99.90;;;;;;8416866;28;20379;-79
2022/11/17 22:26:58;;;;;;;;;;;9.20;99.90;;;;;;8427520;28;20410;-78
2022/11/17 22:31:03;;;;;;;;;;;9.20;99.90;;;;;;8427493;28;19950;-79
2022/11/17 22:35:05;;;;;;;;;;;9.20;99.90;;;;;;8426272;28;19977;-79
2022/11/17 22:39:06;;;;;;;;;;;9.10;99.90;;;;;;8422646;28;20376;-79
2022/11/17 22:48:12;;;;;;;;;;;9.10;99.90;;;;;;8423466;28;19950;-79
2022/11/17 22:52:14;;;;;;;;;;;9.10;99.90;;;;;;8423456;28;19924;-79
2022/11/17 22:56:16;;;;;;;;;;;9.00;99.90;;;;;;8426253;28;19924;-79
2022/11/17 23:00:18;;;;;;;;;;;9.00;99.90;;;;;;8426743;28;19955;-79
2022/11/17 23:04:21;;;;;;;;;;;9.00;99.90;;;;;;8409912;28;19925;-79
2022/11/17 23:08:23;;;;;;;;;;;9.00;99.90;;;;;;8424739;28;19934;-79
2022/11/17 23:12:25;;;;;;;;;;;9.00;99.90;;;;;;8408136;28;19935;-79
2022/11/17 23:16:26;;;;;;;;;;;9.00;99.90;;;;;;8424000;28;20013;-79
2022/11/17 23:20:28;;;;;;;;;;;9.00;99.90;;;;;;8399301;28;19934;-79
2022/11/17 23:24:29;;;;;;;;;;;9.00;99.90;;;;;;8422705;28;19927;-79
2022/11/17 23:28:31;;;;;;;;;;;9.00;99.90;;;;;;8413950;28;19928;-79
2022/11/17 23:32:33;;;;;;;;;;;8.90;99.90;;;;;;8391968;28;19924;-79
2022/11/17 23:36:35;;;;;;;;;;;8.90;99.90;;;;;;8407134;28;20251;-79
2022/11/17 23:40:36;;;;;;;;;;;8.90;99.90;;;;;;8418669;28;19971;-79
2022/11/17 23:44:38;;;;;;;;;;;8.90;99.90;;;;;;8415391;28;19934;-79
2022/11/17 23:48:40;;;;;;;;;;;8.80;99.90;;;;;;8400968;28;19971;-79
2022/11/17 23:52:42;;;;;;;;;;;8.80;99.90;;;;;;8428278;28;19924;-79
2022/11/17 23:56:44;;;;;;;;;;;8.80;99.90;;;;;;8396514;28;19928;-79
